METAR AND TAF INFORMATION
METAR FOR EDJA
ADDS - METARS form results

(1805 UTC 23 January 2021)
Data provider http://aviationweather.gov/metar/data/
 
METAR text: EDJA 231750Z 15002KT CAVOK M01/M02 Q0994
Conditions at: EDJA (MEMMINGEN ALLGAU, DE) observed 1750 UTC 23 January 2021
Temperature: -1.0°C (30°F)
Dewpoint: -2.0°C (28°F) [RH = 93%]
Pressure (altimeter): 29.35 inches Hg (994.0 mb)
Winds: from the SSE (150 degrees) at 2 MPH (2 knots; 1.0 m/s)
Visibility: 6 or more miles (10+ km)
Ceiling: ceiling and visibility are OK
Clouds: unknown
Weather: no significant weather observed at this time

METAR text: EDJA 231720Z 14004KT CAVOK M01/M02 Q0994
Conditions at: EDJA (MEMMINGEN ALLGAU, DE) observed 1720 UTC 23 January 2021
Temperature: -1.0°C (30°F)
Dewpoint: -2.0°C (28°F) [RH = 93%]
Pressure (altimeter): 29.35 inches Hg (994.0 mb)
Winds: from the SE (140 degrees) at 5 MPH (4 knots; 2.1 m/s)
Visibility: 6 or more miles (10+ km)
Ceiling: ceiling and visibility are OK
Clouds: unknown
Weather: no significant weather observed at this time

Forecast for: EDJA (MEMMINGEN ALLGAU, DE)
Text: TAF EDJA 231700Z 2318/2403 13004KT CAVOK
Forecast period: 1800 to 2000 UTC 23 January 2021
Forecast type: FROM: standard forecast or significant change
Winds: from the SE (130 degrees) at 5 MPH (4 knots; 2.1 m/s)
Visibility: 6 or more miles (10+ km)
Ceiling: unknown
Clouds: missing
Weather: NSW  (no significant weather)
Text: PROB30
Forecast period: 2000 UTC 23 January 2021 to 0300 UTC 24 January 2021
Forecast type: TEMPORARY: The following changes expected for less than half the time period
Visibility: 1.55 miles (2.49 km)
Ceiling: unknown
Clouds: missing
Weather: -SN  (light snow)
Text: TEMPO 2320/2403 2500 -SN
Forecast period: 2000 to 2300 UTC 23 January 2021
Forecast type: BECOMING: Conditions expected to become as follows by 2200 UTC 23 January 2021
Winds: from the SSW (210 degrees) at 7 MPH (6 knots; 3.1 m/s)
Visibility: 6 or more miles (10+ km)
Ceiling: unknown
Clouds: missing
Weather: NSW  (no significant weather)
Text: BECMG 2320/2322 21006KT
Forecast period: 2300 UTC 23 January 2021 to 0300 UTC 24 January 2021
Forecast type: BECOMING: Conditions expected to become as follows by 0100 UTC 24 January 2021
Winds: from the WSW (240 degrees) at 17 MPH (15 knots; 7.7 m/s)
gusting to 29 MPH (25 knots; 12.9 m/s)
Visibility: 6 or more miles (10+ km)
Ceiling: unknown
Clouds: missing
Weather: NSW  (no significant weather)

 AIRPORT MAP

 RUNWAY INFORMATION
Runway 06 Runway length 9780 ft Runway width 98 ft
Runway elevation 2077 ft Runway displaced threshold 953 ft Runway heading 59
Runway 24 Runway length 9780 ft Runway width 98 ft
Runway elevation 2077 ft Runway displaced threshold 953 ft Runway heading 239

 AIRPORT FREQUENCIES
Type AFIS Name MUNCHEN IN Frequency 126.95 MHZ
Type INFO Name INFO Frequency 135.6 MHZ

 AIRPORT NEAR NAVIGATION AIDS



Powered by Virtual Airlines Manager [v2.6.2]

Impressum | Datenschutz